sensor_id;sensor_type;location;lat;lon;timestamp;pressure;altitude;pressure_sealevel;temperature;humidity
6196;BME280;3131;42.630;23.382;2023-04-28T00:01:35;94646.91;;;6.43;86.57
6196;BME280;3131;42.630;23.382;2023-04-28T00:04:05;94646.20;;;6.41;86.80
6196;BME280;3131;42.630;23.382;2023-04-28T00:06:35;94647.59;;;6.38;86.78
6196;BME280;3131;42.630;23.382;2023-04-28T00:09:04;94654.94;;;6.33;87.33
6196;BME280;3131;42.630;23.382;2023-04-28T00:11:34;94641.67;;;6.31;87.56
6196;BME280;3131;42.630;23.382;2023-04-28T00:14:04;94652.66;;;6.28;88.50
6196;BME280;3131;42.630;23.382;2023-04-28T00:16:34;94649.86;;;6.25;88.64
6196;BME280;3131;42.630;23.382;2023-04-28T00:19:04;94649.77;;;6.27;88.05
6196;BME280;3131;42.630;23.382;2023-04-28T00:21:33;94648.61;;;6.25;88.49
6196;BME280;3131;42.630;23.382;2023-04-28T00:24:03;94649.91;;;6.24;88.47
6196;BME280;3131;42.630;23.382;2023-04-28T00:26:32;94648.44;;;6.20;89.28
6196;BME280;3131;42.630;23.382;2023-04-28T00:29:02;94650.33;;;6.15;89.54
6196;BME280;3131;42.630;23.382;2023-04-28T00:31:31;94649.61;;;6.13;89.80
6196;BME280;3131;42.630;23.382;2023-04-28T00:34:02;94644.66;;;6.11;90.06
6196;BME280;3131;42.630;23.382;2023-04-28T00:36:31;94650.97;;;6.01;91.05
6196;BME280;3131;42.630;23.382;2023-04-28T00:39:01;94656.42;;;6.00;91.49
6196;BME280;3131;42.630;23.382;2023-04-28T00:41:30;94654.74;;;5.91;91.72
6196;BME280;3131;42.630;23.382;2023-04-28T00:44:00;94660.11;;;5.92;92.67
6196;BME280;3131;42.630;23.382;2023-04-28T00:46:30;94660.59;;;5.81;93.82
6196;BME280;3131;42.630;23.382;2023-04-28T00:49:00;94667.31;;;5.70;95.01
6196;BME280;3131;42.630;23.382;2023-04-28T00:51:30;94659.39;;;5.61;95.65
6196;BME280;3131;42.630;23.382;2023-04-28T00:54:00;94658.48;;;5.53;96.70
6196;BME280;3131;42.630;23.382;2023-04-28T00:56:30;94656.83;;;5.43;98.06
6196;BME280;3131;42.630;23.382;2023-04-28T00:58:59;94657.97;;;5.36;98.87
6196;BME280;3131;42.630;23.382;2023-04-28T01:01:29;94657.58;;;5.35;99.49
6196;BME280;3131;42.630;23.382;2023-04-28T01:03:59;94659.03;;;5.30;100.00
6196;BME280;3131;42.630;23.382;2023-04-28T01:06:29;94666.02;;;5.32;100.00
6196;BME280;3131;42.630;23.382;2023-04-28T01:09:00;94637.80;;;5.10;100.00
6196;BME280;3131;42.630;23.382;2023-04-28T01:11:29;94663.98;;;5.22;100.00
6196;BME280;3131;42.630;23.382;2023-04-28T01:13:58;94663.34;;;5.17;100.00
6196;BME280;3131;42.630;23.382;2023-04-28T01:16:28;94678.87;;;5.15;100.00
6196;BME280;3131;42.630;23.382;2023-04-28T01:19:00;94672.66;;;5.13;100.00
6196;BME280;3131;42.630;23.382;2023-04-28T01:21:31;94673.06;;;5.14;100.00
6196;BME280;3131;42.630;23.382;2023-04-28T01:24:00;94666.50;;;5.11;100.00
6196;BME280;3131;42.630;23.382;2023-04-28T01:26:30;94676.98;;;5.09;100.00
6196;BME280;3131;42.630;23.382;2023-04-28T01:28:59;94673.75;;;5.07;100.00
6196;BME280;3131;42.630;23.382;2023-04-28T01:31:29;94675.17;;;5.03;100.00
6196;BME280;3131;42.630;23.382;2023-04-28T01:33:58;94679.00;;;5.01;100.00
6196;BME280;3131;42.630;23.382;2023-04-28T01:36:28;94680.30;;;5.00;100.00
6196;BME280;3131;42.630;23.382;2023-04-28T01:38:57;94675.25;;;5.01;100.00
6196;BME280;3131;42.630;23.382;2023-04-28T01:41:27;94683.36;;;4.96;100.00
6196;BME280;3131;42.630;23.382;2023-04-28T01:43:56;94672.92;;;4.97;100.00
6196;BME280;3131;42.630;23.382;2023-04-28T01:46:26;94679.81;;;4.92;100.00
6196;BME280;3131;42.630;23.382;2023-04-28T01:48:56;94673.05;;;4.94;100.00
6196;BME280;3131;42.630;23.382;2023-04-28T01:51:25;94666.61;;;4.88;100.00
6196;BME280;3131;42.630;23.382;2023-04-28T01:56:33;94671.36;;;4.94;100.00
6196;BME280;3131;42.630;23.382;2023-04-28T01:59:03;94676.92;;;4.91;99.87
6196;BME280;3131;42.630;23.382;2023-04-28T02:01:33;94675.06;;;4.85;100.00
6196;BME280;3131;42.630;23.382;2023-04-28T02:04:02;94675.72;;;4.79;100.00
6196;BME280;3131;42.630;23.382;2023-04-28T02:06:31;94675.31;;;4.79;100.00
6196;BME280;3131;42.630;23.382;2023-04-28T02:09:01;94673.22;;;4.79;100.00
6196;BME280;3131;42.630;23.382;2023-04-28T02:11:30;94675.36;;;4.68;100.00
6196;BME280;3131;42.630;23.382;2023-04-28T02:13:59;94677.25;;;4.73;100.00
6196;BME280;3131;42.630;23.382;2023-04-28T02:16:29;94679.03;;;4.69;100.00
6196;BME280;3131;42.630;23.382;2023-04-28T02:19:00;94677.48;;;4.67;100.00
6196;BME280;3131;42.630;23.382;2023-04-28T02:21:29;94678.90;;;4.62;100.00
6196;BME280;3131;42.630;23.382;2023-04-28T02:23:59;94681.23;;;4.67;100.00
6196;BME280;3131;42.630;23.382;2023-04-28T02:26:29;94683.33;;;4.65;100.00
6196;BME280;3131;42.630;23.382;2023-04-28T02:28:58;94687.08;;;4.65;100.00
6196;BME280;3131;42.630;23.382;2023-04-28T02:31:28;94686.16;;;4.68;100.00
6196;BME280;3131;42.630;23.382;2023-04-28T02:33:57;94684.86;;;4.70;100.00
6196;BME280;3131;42.630;23.382;2023-04-28T02:36:26;94687.84;;;4.68;100.00
6196;BME280;3131;42.630;23.382;2023-04-28T02:41:35;94693.09;;;4.72;100.00
6196;BME280;3131;42.630;23.382;2023-04-28T02:44:05;94697.52;;;4.65;100.00
6196;BME280;3131;42.630;23.382;2023-04-28T02:46:34;94696.70;;;4.64;100.00
6196;BME280;3131;42.630;23.382;2023-04-28T02:49:04;94703.87;;;4.62;100.00
6196;BME280;3131;42.630;23.382;2023-04-28T02:51:34;94696.34;;;4.63;100.00
6196;BME280;3131;42.630;23.382;2023-04-28T02:54:04;94695.78;;;4.67;100.00
6196;BME280;3131;42.630;23.382;2023-04-28T02:56:34;94702.06;;;4.65;100.00
6196;BME280;3131;42.630;23.382;2023-04-28T02:59:04;94703.00;;;4.63;100.00
6196;BME280;3131;42.630;23.382;2023-04-28T03:01:33;94705.77;;;4.67;100.00
6196;BME280;3131;42.630;23.382;2023-04-28T03:04:03;94707.62;;;4.62;100.00
6196;BME280;3131;42.630;23.382;2023-04-28T03:06:33;94704.32;;;4.61;100.00
6196;BME280;3131;42.630;23.382;2023-04-28T03:09:03;94717.05;;;4.55;100.00
6196;BME280;3131;42.630;23.382;2023-04-28T03:11:33;94710.03;;;4.53;100.00
6196;BME280;3131;42.630;23.382;2023-04-28T03:14:03;94716.05;;;4.59;100.00
6196;BME280;3131;42.630;23.382;2023-04-28T03:19:13;94713.38;;;4.64;100.00
6196;BME280;3131;42.630;23.382;2023-04-28T03:21:42;94716.28;;;4.53;100.00
6196;BME280;3131;42.630;23.382;2023-04-28T03:24:12;94717.23;;;4.51;100.00
6196;BME280;3131;42.630;23.382;2023-04-28T03:26:41;94718.05;;;4.51;100.00
6196;BME280;3131;42.630;23.382;2023-04-28T03:29:10;94723.77;;;4.53;100.00
6196;BME280;3131;42.630;23.382;2023-04-28T03:31:40;94727.15;;;4.52;100.00
6196;BME280;3131;42.630;23.382;2023-04-28T03:34:09;94733.60;;;4.58;100.00
6196;BME280;3131;42.630;23.382;2023-04-28T03:36:39;94737.05;;;4.65;100.00
6196;BME280;3131;42.630;23.382;2023-04-28T03:39:08;94739.54;;;4.65;100.00
6196;BME280;3131;42.630;23.382;2023-04-28T03:41:37;94742.55;;;4.63;100.00
6196;BME280;3131;42.630;23.382;2023-04-28T03:44:07;94746.59;;;4.66;100.00
6196;BME280;3131;42.630;23.382;2023-04-28T03:46:37;94753.97;;;4.69;100.00
6196;BME280;3131;42.630;23.382;2023-04-28T03:49:07;94752.67;;;4.71;100.00
6196;BME280;3131;42.630;23.382;2023-04-28T03:51:37;94750.83;;;4.76;100.00
6196;BME280;3131;42.630;23.382;2023-04-28T03:54:06;94758.57;;;4.80;100.00
6196;BME280;3131;42.630;23.382;2023-04-28T03:56:36;94761.31;;;4.84;100.00
6196;BME280;3131;42.630;23.382;2023-04-28T04:01:48;94770.72;;;4.99;99.18
6196;BME280;3131;42.630;23.382;2023-04-28T04:04:18;94777.13;;;4.95;98.58
6196;BME280;3131;42.630;23.382;2023-04-28T04:06:47;94777.34;;;5.00;98.08
6196;BME280;3131;42.630;23.382;2023-04-28T04:09:17;94780.48;;;5.05;97.54
6196;BME280;3131;42.630;23.382;2023-04-28T04:11:47;94787.30;;;5.12;97.98
6196;BME280;3131;42.630;23.382;2023-04-28T04:14:16;94779.60;;;5.17;95.06
6196;BME280;3131;42.630;23.382;2023-04-28T04:16:46;94787.30;;;5.22;94.94
6196;BME280;3131;42.630;23.382;2023-04-28T04:19:16;94768.23;;;5.09;94.59
6196;BME280;3131;42.630;23.382;2023-04-28T04:21:45;94786.30;;;5.26;94.21
6196;BME280;3131;42.630;23.382;2023-04-28T04:24:15;94790.31;;;5.30;93.63
6196;BME280;3131;42.630;23.382;2023-04-28T04:26:44;94788.87;;;5.35;93.19
6196;BME280;3131;42.630;23.382;2023-04-28T04:29:14;94803.02;;;5.36;92.69
6196;BME280;3131;42.630;23.382;2023-04-28T04:31:43;94801.20;;;5.40;92.64
6196;BME280;3131;42.630;23.382;2023-04-28T04:34:13;94800.81;;;5.39;92.01
6196;BME280;3131;42.630;23.382;2023-04-28T04:36:42;94802.74;;;5.42;91.61
6196;BME280;3131;42.630;23.382;2023-04-28T04:39:12;94803.83;;;5.47;91.68
6196;BME280;3131;42.630;23.382;2023-04-28T04:41:41;94807.50;;;5.48;90.56
6196;BME280;3131;42.630;23.382;2023-04-28T04:44:11;94806.80;;;5.55;90.19
6196;BME280;3131;42.630;23.382;2023-04-28T04:46:40;94811.69;;;5.58;90.70
6196;BME280;3131;42.630;23.382;2023-04-28T04:49:10;94812.89;;;5.59;89.99
6196;BME280;3131;42.630;23.382;2023-04-28T04:51:39;94813.00;;;5.67;89.83
6196;BME280;3131;42.630;23.382;2023-04-28T04:54:09;94811.95;;;5.72;89.61
6196;BME280;3131;42.630;23.382;2023-04-28T04:56:38;94816.38;;;5.76;89.14
6196;BME280;3131;42.630;23.382;2023-04-28T04:59:09;94819.88;;;5.82;88.37
6196;BME280;3131;42.630;23.382;2023-04-28T05:01:39;94824.57;;;5.79;87.34
6196;BME280;3131;42.630;23.382;2023-04-28T05:04:09;94826.77;;;5.87;87.22
6196;BME280;3131;42.630;23.382;2023-04-28T05:06:38;94830.66;;;5.94;87.40
6196;BME280;3131;42.630;23.382;2023-04-28T05:09:08;94830.41;;;6.00;88.68
6196;BME280;3131;42.630;23.382;2023-04-28T05:11:37;94834.97;;;6.01;86.26
6196;BME280;3131;42.630;23.382;2023-04-28T05:14:07;94834.14;;;6.11;86.66
6196;BME280;3131;42.630;23.382;2023-04-28T05:16:36;94840.63;;;6.15;86.04
6196;BME280;3131;42.630;23.382;2023-04-28T05:19:06;94844.96;;;6.11;85.59
6196;BME280;3131;42.630;23.382;2023-04-28T05:21:35;94836.52;;;6.14;85.80
6196;BME280;3131;42.630;23.382;2023-04-28T05:24:06;94837.73;;;6.24;86.15
6196;BME280;3131;42.630;23.382;2023-04-28T05:26:36;94838.55;;;6.35;85.67
6196;BME280;3131;42.630;23.382;2023-04-28T05:29:06;94841.86;;;6.35;85.12
6196;BME280;3131;42.630;23.382;2023-04-28T05:31:35;94833.63;;;6.42;85.71
6196;BME280;3131;42.630;23.382;2023-04-28T05:34:06;94831.53;;;6.51;85.49
6196;BME280;3131;42.630;23.382;2023-04-28T05:39:21;94813.53;;;6.71;85.87
6196;BME280;3131;42.630;23.382;2023-04-28T05:44:38;94833.22;;;6.70;86.03
6196;BME280;3131;42.630;23.382;2023-04-28T05:47:10;94828.66;;;6.69;87.37
6196;BME280;3131;42.630;23.382;2023-04-28T05:49:42;94830.16;;;6.82;86.06
6196;BME280;3131;42.630;23.382;2023-04-28T05:54:54;94830.64;;;6.99;85.66
6196;BME280;3131;42.630;23.382;2023-04-28T05:57:24;94834.76;;;7.00;84.16
6196;BME280;3131;42.630;23.382;2023-04-28T05:59:53;94843.84;;;7.03;82.87
6196;BME280;3131;42.630;23.382;2023-04-28T06:02:23;94833.34;;;6.94;82.11
6196;BME280;3131;42.630;23.382;2023-04-28T06:04:52;94838.75;;;6.95;83.50
6196;BME280;3131;42.630;23.382;2023-04-28T06:07:22;94836.81;;;7.01;82.18
6196;BME280;3131;42.630;23.382;2023-04-28T06:09:52;94832.91;;;7.04;82.93
6196;BME280;3131;42.630;23.382;2023-04-28T06:12:21;94831.03;;;7.26;82.96
6196;BME280;3131;42.630;23.382;2023-04-28T06:14:50;94793.27;;;7.20;80.16
6196;BME280;3131;42.630;23.382;2023-04-28T06:17:22;94836.82;;;7.46;75.98
6196;BME280;3131;42.630;23.382;2023-04-28T06:19:51;94841.09;;;7.43;76.72
6196;BME280;3131;42.630;23.382;2023-04-28T06:22:21;94827.14;;;7.47;76.15
6196;BME280;3131;42.630;23.382;2023-04-28T06:24:50;94839.40;;;7.53;76.90
6196;BME280;3131;42.630;23.382;2023-04-28T06:27:19;94841.70;;;7.49;75.76
6196;BME280;3131;42.630;23.382;2023-04-28T06:29:48;94832.83;;;7.59;75.32
6196;BME280;3131;42.630;23.382;2023-04-28T06:32:17;94838.27;;;7.67;75.66
6196;BME280;3131;42.630;23.382;2023-04-28T06:34:47;94846.70;;;7.66;74.72
6196;BME280;3131;42.630;23.382;2023-04-28T06:37:16;94843.59;;;7.78;73.98
6196;BME280;3131;42.630;23.382;2023-04-28T06:39:45;94841.50;;;7.95;73.08
6196;BME280;3131;42.630;23.382;2023-04-28T06:42:15;94838.16;;;8.12;72.94
6196;BME280;3131;42.630;23.382;2023-04-28T06:44:45;94834.01;;;8.11;71.77
6196;BME280;3131;42.630;23.382;2023-04-28T06:47:15;94832.83;;;8.34;70.73
6196;BME280;3131;42.630;23.382;2023-04-28T06:49:44;94829.72;;;8.46;68.56
6196;BME280;3131;42.630;23.382;2023-04-28T06:52:15;94836.45;;;8.12;67.09
6196;BME280;3131;42.630;23.382;2023-04-28T06:54:44;94832.53;;;8.16;65.45
6196;BME280;3131;42.630;23.382;2023-04-28T06:57:14;94833.20;;;8.10;66.32
6196;BME280;3131;42.630;23.382;2023-04-28T06:59:43;94828.67;;;8.17;67.66
6196;BME280;3131;42.630;23.382;2023-04-28T07:02:13;94828.72;;;8.42;67.02
6196;BME280;3131;42.630;23.382;2023-04-28T07:04:42;94838.02;;;8.80;65.65
6196;BME280;3131;42.630;23.382;2023-04-28T07:07:11;94836.70;;;9.04;63.35
6196;BME280;3131;42.630;23.382;2023-04-28T07:09:41;94834.23;;;9.19;62.14
6196;BME280;3131;42.630;23.382;2023-04-28T07:12:10;94843.00;;;9.27;60.51
6196;BME280;3131;42.630;23.382;2023-04-28T07:14:39;94840.16;;;9.41;59.64
6196;BME280;3131;42.630;23.382;2023-04-28T07:17:08;94832.38;;;9.52;60.17
6196;BME280;3131;42.630;23.382;2023-04-28T07:19:38;94829.47;;;9.74;60.19
6196;BME280;3131;42.630;23.382;2023-04-28T07:22:07;94831.42;;;9.76;60.25
6196;BME280;3131;42.630;23.382;2023-04-28T07:24:36;94831.60;;;9.73;58.75
6196;BME280;3131;42.630;23.382;2023-04-28T07:27:05;94836.44;;;9.55;59.01
6196;BME280;3131;42.630;23.382;2023-04-28T07:29:35;94837.81;;;9.38;59.79
6196;BME280;3131;42.630;23.382;2023-04-28T07:32:05;94830.23;;;9.23;60.86
6196;BME280;3131;42.630;23.382;2023-04-28T07:34:37;94829.96;;;9.28;61.33
6196;BME280;3131;42.630;23.382;2023-04-28T07:37:06;94829.73;;;9.40;60.68
6196;BME280;3131;42.630;23.382;2023-04-28T07:39:36;94825.23;;;9.38;62.08
6196;BME280;3131;42.630;23.382;2023-04-28T07:42:07;94826.08;;;9.45;60.53
6196;BME280;3131;42.630;23.382;2023-04-28T07:44:36;94829.75;;;9.91;59.39
6196;BME280;3131;42.630;23.382;2023-04-28T07:47:05;94838.53;;;10.29;55.82
6196;BME280;3131;42.630;23.382;2023-04-28T07:49:34;94835.27;;;10.34;56.10
6196;BME280;3131;42.630;23.382;2023-04-28T07:52:04;94836.34;;;10.58;57.28
6196;BME280;3131;42.630;23.382;2023-04-28T07:54:33;94843.39;;;10.53;55.76
6196;BME280;3131;42.630;23.382;2023-04-28T07:57:03;94839.17;;;10.47;56.68
6196;BME280;3131;42.630;23.382;2023-04-28T07:59:33;94837.91;;;10.95;55.42
6196;BME280;3131;42.630;23.382;2023-04-28T08:02:02;94828.53;;;10.90;53.69
6196;BME280;3131;42.630;23.382;2023-04-28T08:04:32;94830.92;;;11.33;54.04
6196;BME280;3131;42.630;23.382;2023-04-28T08:07:03;94828.89;;;11.38;52.42
6196;BME280;3131;42.630;23.382;2023-04-28T08:09:33;94828.89;;;11.38;51.12
6196;BME280;3131;42.630;23.382;2023-04-28T08:12:02;94840.02;;;11.55;50.04
6196;BME280;3131;42.630;23.382;2023-04-28T08:14:32;94838.65;;;11.37;49.56
6196;BME280;3131;42.630;23.382;2023-04-28T08:17:01;94830.30;;;11.49;50.12
6196;BME280;3131;42.630;23.382;2023-04-28T08:19:30;94834.37;;;11.97;49.00
6196;BME280;3131;42.630;23.382;2023-04-28T08:22:00;94839.03;;;12.03;47.40
6196;BME280;3131;42.630;23.382;2023-04-28T08:24:32;94835.78;;;11.89;47.48
6196;BME280;3131;42.630;23.382;2023-04-28T08:27:02;94834.72;;;12.24;48.21
6196;BME280;3131;42.630;23.382;2023-04-28T08:29:32;94829.17;;;12.63;48.40
6196;BME280;3131;42.630;23.382;2023-04-28T08:32:01;94823.36;;;12.92;47.28
6196;BME280;3131;42.630;23.382;2023-04-28T08:34:31;94838.66;;;12.72;45.20
6196;BME280;3131;42.630;23.382;2023-04-28T08:37:00;94834.92;;;12.46;45.58
6196;BME280;3131;42.630;23.382;2023-04-28T08:39:30;94824.82;;;12.52;46.08
6196;BME280;3131;42.630;23.382;2023-04-28T08:42:02;94822.98;;;12.85;45.39
6196;BME280;3131;42.630;23.382;2023-04-28T08:44:36;94823.78;;;12.67;44.71
6196;BME280;3131;42.630;23.382;2023-04-28T08:47:09;94821.30;;;12.97;44.00
6196;BME280;3131;42.630;23.382;2023-04-28T08:49:39;94819.86;;;12.19;44.54
6196;BME280;3131;42.630;23.382;2023-04-28T08:52:12;94821.08;;;12.14;46.54
6196;BME280;3131;42.630;23.382;2023-04-28T08:54:43;94823.55;;;11.95;44.90
6196;BME280;3131;42.630;23.382;2023-04-28T08:57:14;94809.82;;;12.62;45.88
6196;BME280;3131;42.630;23.382;2023-04-28T08:59:44;94820.66;;;14.06;41.83
6196;BME280;3131;42.630;23.382;2023-04-28T09:02:13;94817.31;;;14.17;41.07
6196;BME280;3131;42.630;23.382;2023-04-28T09:04:42;94816.48;;;14.84;39.80
6196;BME280;3131;42.630;23.382;2023-04-28T09:07:12;94812.29;;;16.52;37.12
6196;BME280;3131;42.630;23.382;2023-04-28T09:09:41;94807.23;;;17.12;35.61
6196;BME280;3131;42.630;23.382;2023-04-28T09:12:12;94803.08;;;17.79;35.16
6196;BME280;3131;42.630;23.382;2023-04-28T09:14:41;94804.88;;;19.26;32.76
6196;BME280;3131;42.630;23.382;2023-04-28T09:17:11;94799.82;;;20.18;31.81
6196;BME280;3131;42.630;23.382;2023-04-28T09:19:41;94805.73;;;19.66;31.02
6196;BME280;3131;42.630;23.382;2023-04-28T09:22:10;94799.44;;;18.66;31.77
6196;BME280;3131;42.630;23.382;2023-04-28T09:24:40;94793.75;;;18.58;32.14
6196;BME280;3131;42.630;23.382;2023-04-28T09:27:10;94791.16;;;18.95;31.62
6196;BME280;3131;42.630;23.382;2023-04-28T09:32:33;94784.95;;;22.17;28.72
6196;BME280;3131;42.630;23.382;2023-04-28T09:35:08;94787.69;;;22.19;28.10
6196;BME280;3131;42.630;23.382;2023-04-28T09:37:41;94783.52;;;22.06;28.12
6196;BME280;3131;42.630;23.382;2023-04-28T09:40:16;94777.35;;;23.37;27.25
6196;BME280;3131;42.630;23.382;2023-04-28T09:42:51;94779.63;;;24.27;26.21
6196;BME280;3131;42.630;23.382;2023-04-28T09:51:06;94765.09;;;25.32;25.01
6196;BME280;3131;42.630;23.382;2023-04-28T09:53:40;94756.56;;;25.81;24.06
6196;BME280;3131;42.630;23.382;2023-04-28T09:56:14;94760.34;;;23.51;24.71
6196;BME280;3131;42.630;23.382;2023-04-28T09:58:48;94760.80;;;22.46;25.48
6196;BME280;3131;42.630;23.382;2023-04-28T10:04:05;94738.73;;;23.19;25.30
6196;BME280;3131;42.630;23.382;2023-04-28T10:06:43;94740.65;;;23.96;25.16
6196;BME280;3131;42.630;23.382;2023-04-28T10:09:18;94746.99;;;23.90;24.73
6196;BME280;3131;42.630;23.382;2023-04-28T10:11:53;94743.30;;;22.42;26.29
6196;BME280;3131;42.630;23.382;2023-04-28T10:14:24;94748.20;;;22.16;25.97
6196;BME280;3131;42.630;23.382;2023-04-28T10:16:54;94740.28;;;21.46;26.84
6196;BME280;3131;42.630;23.382;2023-04-28T10:19:24;94746.89;;;22.68;26.12
6196;BME280;3131;42.630;23.382;2023-04-28T10:21:58;94741.95;;;22.07;25.75
6196;BME280;3131;42.630;23.382;2023-04-28T10:24:29;94744.45;;;23.02;24.95
6196;BME280;3131;42.630;23.382;2023-04-28T10:27:06;94738.25;;;23.15;23.82
6196;BME280;3131;42.630;23.382;2023-04-28T10:29:36;94736.24;;;23.06;23.79
6196;BME280;3131;42.630;23.382;2023-04-28T10:32:22;94731.91;;;24.82;22.50
6196;BME280;3131;42.630;23.382;2023-04-28T10:34:52;94726.38;;;24.34;22.65
6196;BME280;3131;42.630;23.382;2023-04-28T10:40:32;94713.69;;;25.48;22.86
6196;BME280;3131;42.630;23.382;2023-04-28T10:43:01;94721.98;;;25.54;21.93
6196;BME280;3131;42.630;23.382;2023-04-28T10:49:10;94712.37;;;23.92;23.78
6196;BME280;3131;42.630;23.382;2023-04-28T10:51:40;94702.57;;;25.47;23.38
6196;BME280;3131;42.630;23.382;2023-04-28T10:54:17;94703.22;;;24.70;24.38
6196;BME280;3131;42.630;23.382;2023-04-28T10:57:19;94690.95;;;24.83;22.82
6196;BME280;3131;42.630;23.382;2023-04-28T10:59:50;94701.76;;;24.61;23.00
6196;BME280;3131;42.630;23.382;2023-04-28T11:02:53;94698.36;;;26.44;22.23
6196;BME280;3131;42.630;23.382;2023-04-28T11:05:23;94694.49;;;27.59;20.99
6196;BME280;3131;42.630;23.382;2023-04-28T11:11:25;94696.48;;;25.83;21.12
6196;BME280;3131;42.630;23.382;2023-04-28T11:13:56;94685.43;;;25.08;22.75
6196;BME280;3131;42.630;23.382;2023-04-28T11:16:25;94684.05;;;27.43;20.64
6196;BME280;3131;42.630;23.382;2023-04-28T11:18:57;94681.70;;;28.33;20.25
6196;BME280;3131;42.630;23.382;2023-04-28T11:21:27;94681.31;;;28.22;19.43
6196;BME280;3131;42.630;23.382;2023-04-28T11:23:57;94681.83;;;28.51;19.29
6196;BME280;3131;42.630;23.382;2023-04-28T11:26:27;94676.58;;;27.57;19.86
6196;BME280;3131;42.630;23.382;2023-04-28T11:28:58;94683.64;;;26.62;20.14
6196;BME280;3131;42.630;23.382;2023-04-28T11:31:27;94682.52;;;24.38;22.21
6196;BME280;3131;42.630;23.382;2023-04-28T11:34:02;94679.96;;;25.95;20.67
6196;BME280;3131;42.630;23.382;2023-04-28T11:36:33;94671.42;;;25.95;20.96
6196;BME280;3131;42.630;23.382;2023-04-28T11:39:04;94667.60;;;27.80;19.48
6196;BME280;3131;42.630;23.382;2023-04-28T11:41:34;94666.34;;;25.23;20.82
6196;BME280;3131;42.630;23.382;2023-04-28T11:44:11;94667.28;;;26.07;20.43
6196;BME280;3131;42.630;23.382;2023-04-28T11:46:45;94669.27;;;24.16;21.95
6196;BME280;3131;42.630;23.382;2023-04-28T11:49:17;94658.28;;;25.01;21.43
6196;BME280;3131;42.630;23.382;2023-04-28T11:51:47;94657.26;;;25.17;20.87
6196;BME280;3131;42.630;23.382;2023-04-28T11:54:22;94660.15;;;25.46;20.93
6196;BME280;3131;42.630;23.382;2023-04-28T11:56:52;94661.36;;;24.79;21.26
6196;BME280;3131;42.630;23.382;2023-04-28T11:59:25;94653.95;;;24.29;21.31
6196;BME280;3131;42.630;23.382;2023-04-28T12:01:55;94643.28;;;24.58;20.69
6196;BME280;3131;42.630;23.382;2023-04-28T12:04:29;94652.14;;;24.59;21.24
6196;BME280;3131;42.630;23.382;2023-04-28T12:07:04;94643.61;;;26.03;19.86
6196;BME280;3131;42.630;23.382;2023-04-28T12:09:34;94647.81;;;27.23;18.99
6196;BME280;3131;42.630;23.382;2023-04-28T12:12:05;94642.28;;;26.89;18.88
6196;BME280;3131;42.630;23.382;2023-04-28T12:14:55;94642.28;;;26.89;18.88
6196;BME280;3131;42.630;23.382;2023-04-28T12:17:27;94639.31;;;26.17;18.88
6196;BME280;3131;42.630;23.382;2023-04-28T12:19:57;94629.62;;;28.88;17.65
6196;BME280;3131;42.630;23.382;2023-04-28T12:22:27;94624.52;;;30.30;17.17
6196;BME280;3131;42.630;23.382;2023-04-28T12:25:06;94617.65;;;31.32;16.89
6196;BME280;3131;42.630;23.382;2023-04-28T12:27:37;94620.41;;;30.32;17.22
6196;BME280;3131;42.630;23.382;2023-04-28T12:30:25;94628.50;;;30.33;16.59
6196;BME280;3131;42.630;23.382;2023-04-28T12:32:54;94623.52;;;29.76;17.23
6196;BME280;3131;42.630;23.382;2023-04-28T12:35:25;94627.79;;;30.26;16.90
6196;BME280;3131;42.630;23.382;2023-04-28T12:37:55;94623.75;;;29.59;17.27
6196;BME280;3131;42.630;23.382;2023-04-28T12:40:25;94619.23;;;31.80;15.70
6196;BME280;3131;42.630;23.382;2023-04-28T12:42:55;94610.34;;;31.31;16.08
6196;BME280;3131;42.630;23.382;2023-04-28T12:45:24;94604.96;;;31.12;16.09
6196;BME280;3131;42.630;23.382;2023-04-28T12:47:54;94610.02;;;30.04;16.68
6196;BME280;3131;42.630;23.382;2023-04-28T12:50:23;94604.44;;;32.09;15.95
6196;BME280;3131;42.630;23.382;2023-04-28T12:52:54;94605.00;;;28.98;17.42
6196;BME280;3131;42.630;23.382;2023-04-28T12:55:24;94596.13;;;26.04;19.70
6196;BME280;3131;42.630;23.382;2023-04-28T12:57:55;94600.27;;;24.47;21.08
6196;BME280;3131;42.630;23.382;2023-04-28T13:00:24;94588.31;;;25.56;21.00
6196;BME280;3131;42.630;23.382;2023-04-28T13:02:53;94584.28;;;28.91;19.00
6196;BME280;3131;42.630;23.382;2023-04-28T13:05:23;94572.98;;;28.31;19.06
6196;BME280;3131;42.630;23.382;2023-04-28T13:07:53;94593.11;;;27.97;18.59
6196;BME280;3131;42.630;23.382;2023-04-28T13:10:22;94587.30;;;27.66;18.83
6196;BME280;3131;42.630;23.382;2023-04-28T13:12:53;94583.19;;;27.32;19.26
6196;BME280;3131;42.630;23.382;2023-04-28T13:15:22;94580.00;;;27.23;19.19
6196;BME280;3131;42.630;23.382;2023-04-28T13:17:52;94578.00;;;26.85;19.75
6196;BME280;3131;42.630;23.382;2023-04-28T13:20:21;94573.02;;;28.63;19.06
6196;BME280;3131;42.630;23.382;2023-04-28T13:22:51;94570.95;;;27.59;19.41
6196;BME280;3131;42.630;23.382;2023-04-28T13:25:20;94574.91;;;26.29;20.14
6196;BME280;3131;42.630;23.382;2023-04-28T13:27:49;94561.69;;;24.18;21.91
6196;BME280;3131;42.630;23.382;2023-04-28T13:30:19;94570.38;;;25.41;20.54
6196;BME280;3131;42.630;23.382;2023-04-28T13:32:49;94571.81;;;25.85;21.18
6196;BME280;3131;42.630;23.382;2023-04-28T13:35:19;94572.61;;;25.51;20.91
6196;BME280;3131;42.630;23.382;2023-04-28T13:37:49;94569.73;;;24.94;21.57
6196;BME280;3131;42.630;23.382;2023-04-28T13:40:19;94565.57;;;25.56;20.85
6196;BME280;3131;42.630;23.382;2023-04-28T13:42:49;94567.73;;;26.11;20.86
6196;BME280;3131;42.630;23.382;2023-04-28T13:45:18;94568.98;;;24.36;21.62
6196;BME280;3131;42.630;23.382;2023-04-28T13:47:50;94557.20;;;25.12;20.81
6196;BME280;3131;42.630;23.382;2023-04-28T13:50:20;94558.76;;;25.41;21.36
6196;BME280;3131;42.630;23.382;2023-04-28T13:52:49;94556.96;;;24.86;21.32
6196;BME280;3131;42.630;23.382;2023-04-28T13:55:18;94553.71;;;24.88;21.78
6196;BME280;3131;42.630;23.382;2023-04-28T14:00:30;94538.27;;;26.43;20.76
6196;BME280;3131;42.630;23.382;2023-04-28T14:02:59;94536.11;;;25.43;21.59
6196;BME280;3131;42.630;23.382;2023-04-28T14:05:29;94544.73;;;25.99;22.01
6196;BME280;3131;42.630;23.382;2023-04-28T14:07:58;94538.28;;;26.96;21.13
6196;BME280;3131;42.630;23.382;2023-04-28T14:10:29;94536.98;;;27.29;20.31
6196;BME280;3131;42.630;23.382;2023-04-28T14:12:59;94541.70;;;28.49;19.62
6196;BME280;3131;42.630;23.382;2023-04-28T14:15:28;94550.54;;;29.07;18.53